createdAt,value
2023-01-29T00:01:16.290Z,7.23
2023-01-29T00:03:21.446Z,7.25
2023-01-29T00:05:28.177Z,7.25
2023-01-29T00:07:33.181Z,7.25
2023-01-29T00:09:37.873Z,7.26
2023-01-29T00:11:43.134Z,7.26
2023-01-29T00:13:47.888Z,7.26
2023-01-29T00:15:57.383Z,7.25
2023-01-29T00:18:04.639Z,7.25
2023-01-29T00:20:10.326Z,7.26
2023-01-29T00:22:15.137Z,7.28
2023-01-29T00:24:19.904Z,7.27
2023-01-29T00:26:24.564Z,7.28
2023-01-29T00:28:29.976Z,7.29
2023-01-29T00:30:34.618Z,7.28
2023-01-29T00:32:39.334Z,7.27
2023-01-29T00:34:46.716Z,7.24
2023-01-29T00:37:04.981Z,7.24
2023-01-29T00:39:11.059Z,7.23
2023-01-29T00:41:30.289Z,7.23
2023-01-29T00:43:47.395Z,7.22
2023-01-29T00:45:52.183Z,7.19
2023-01-29T00:47:57.061Z,7.18
2023-01-29T00:50:05.082Z,7.14
2023-01-29T00:52:27.746Z,7.15
2023-01-29T00:54:33.280Z,7.12
2023-01-29T00:56:39.590Z,7.11
2023-01-29T00:58:44.264Z,7.10
2023-01-29T01:00:49.023Z,7.10
2023-01-29T01:03:06.033Z,7.11
2023-01-29T01:05:18.248Z,7.12
2023-01-29T01:07:23.664Z,7.11
2023-01-29T01:09:40.915Z,7.13
2023-01-29T01:11:45.679Z,7.11
2023-01-29T01:13:51.307Z,7.12
2023-01-29T01:15:57.911Z,7.12
2023-01-29T01:18:04.635Z,7.12
2023-01-29T01:20:11.017Z,7.13
2023-01-29T01:22:18.614Z,7.12
2023-01-29T01:24:23.496Z,7.13
2023-01-29T01:26:28.922Z,7.14
2023-01-29T01:28:35.898Z,7.15
2023-01-29T01:30:40.569Z,7.14
2023-01-29T01:32:46.064Z,7.13
2023-01-29T01:34:50.677Z,7.11
2023-01-29T01:36:55.969Z,7.10
2023-01-29T01:39:03.763Z,7.08
2023-01-29T01:41:11.460Z,7.09
2023-01-29T01:43:16.406Z,7.10
2023-01-29T01:45:23.408Z,7.09
2023-01-29T01:47:32.865Z,7.06
2023-01-29T01:49:37.590Z,7.07
2023-01-29T01:51:46.391Z,7.06
2023-01-29T01:53:58.627Z,7.08
2023-01-29T01:56:10.511Z,7.07
2023-01-29T01:58:21.100Z,7.05
2023-01-29T02:00:28.903Z,7.04
2023-01-29T02:02:46.157Z,7.04
2023-01-29T02:05:04.775Z,7.07
2023-01-29T02:07:23.993Z,7.10
2023-01-29T02:09:36.339Z,7.14
2023-01-29T02:11:44.098Z,7.16
2023-01-29T02:13:53.724Z,7.19
2023-01-29T02:16:03.409Z,7.22
2023-01-29T02:18:08.335Z,7.24
2023-01-29T02:20:24.304Z,7.24
2023-01-29T02:22:56.511Z,7.22
2023-01-29T02:25:26.135Z,7.20
2023-01-29T02:27:39.166Z,7.16
2023-01-29T02:30:05.887Z,7.14
2023-01-29T02:32:23.214Z,7.16
2023-01-29T02:34:52.023Z,7.19
2023-01-29T02:37:05.425Z,7.20
2023-01-29T02:39:15.933Z,7.13
2023-01-29T02:41:29.400Z,7.18
2023-01-29T02:43:39.766Z,7.21
2023-01-29T02:45:53.520Z,7.21
2023-01-29T02:48:01.472Z,7.21
2023-01-29T02:50:16.255Z,7.20
2023-01-29T02:52:26.577Z,7.20
2023-01-29T02:54:37.765Z,7.20
2023-01-29T02:56:51.163Z,7.19
2023-01-29T02:59:00.352Z,7.11
2023-01-29T03:01:12.995Z,7.14
2023-01-29T03:03:23.407Z,7.13
2023-01-29T03:05:35.340Z,7.15
2023-01-29T03:07:45.080Z,7.18
2023-01-29T03:10:01.570Z,7.18
2023-01-29T03:12:20.069Z,7.16
2023-01-29T03:14:53.089Z,7.19
2023-01-29T03:17:01.593Z,7.19
2023-01-29T03:19:11.380Z,7.20
2023-01-29T03:21:33.572Z,7.22
2023-01-29T03:23:52.238Z,7.21
2023-01-29T03:26:14.742Z,7.20
2023-01-29T03:28:34.306Z,7.18
2023-01-29T03:30:56.407Z,7.15
2023-01-29T03:33:26.832Z,7.12
2023-01-29T03:35:36.582Z,7.12
2023-01-29T03:37:46.488Z,7.10
2023-01-29T03:39:51.754Z,7.12
2023-01-29T03:42:01.799Z,7.12
2023-01-29T03:44:17.504Z,7.11
2023-01-29T03:46:31.512Z,7.12
2023-01-29T03:48:44.465Z,7.12
2023-01-29T03:50:59.082Z,7.12
2023-01-29T03:53:11.041Z,7.14
2023-01-29T03:55:20.329Z,7.15
2023-01-29T03:57:34.580Z,7.13
2023-01-29T03:59:45.394Z,7.14
2023-01-29T04:02:16.104Z,7.12
2023-01-29T04:04:29.558Z,7.11
2023-01-29T04:06:35.947Z,7.04
2023-01-29T04:08:57.814Z,7.06
2023-01-29T04:11:10.256Z,7.08
2023-01-29T04:13:17.822Z,7.08
2023-01-29T04:15:26.977Z,7.11
2023-01-29T04:17:38.400Z,7.11
2023-01-29T04:19:58.662Z,7.11
2023-01-29T04:22:10.033Z,7.11
2023-01-29T04:24:16.467Z,7.13
2023-01-29T04:26:56.908Z,7.12
2023-01-29T04:29:21.710Z,7.12
2023-01-29T04:31:35.535Z,7.12
2023-01-29T04:33:45.693Z,7.06
2023-01-29T04:36:06.183Z,7.09
2023-01-29T04:38:16.039Z,7.11
2023-01-29T04:40:26.723Z,7.14
2023-01-29T04:42:35.115Z,7.15
2023-01-29T04:44:45.142Z,7.15
2023-01-29T04:46:55.708Z,7.14
2023-01-29T04:49:10.669Z,7.11
2023-01-29T04:51:25.484Z,7.08
2023-01-29T04:53:38.329Z,7.09
2023-01-29T04:55:47.848Z,7.08
2023-01-29T04:57:58.711Z,7.09
2023-01-29T05:00:10.147Z,7.09
2023-01-29T05:02:15.948Z,7.08
2023-01-29T05:04:23.413Z,7.07
2023-01-29T05:06:33.578Z,7.06
2023-01-29T05:08:41.576Z,7.07
2023-01-29T05:10:47.161Z,7.06
2023-01-29T05:12:56.991Z,7.07
2023-01-29T05:15:05.359Z,7.08
2023-01-29T05:17:17.588Z,7.09
2023-01-29T05:19:22.226Z,7.11
2023-01-29T05:21:30.512Z,7.13
2023-01-29T05:23:35.350Z,7.14
2023-01-29T05:25:40.552Z,7.14
2023-01-29T05:27:57.764Z,7.14
2023-01-29T05:30:02.476Z,7.13
2023-01-29T05:32:07.154Z,7.13
2023-01-29T05:34:11.954Z,7.12
2023-01-29T05:36:16.733Z,7.13
2023-01-29T05:38:25.406Z,7.12
2023-01-29T05:40:30.031Z,7.13
2023-01-29T05:42:35.647Z,7.14
2023-01-29T05:44:40.347Z,7.13
2023-01-29T05:46:45.231Z,7.13
2023-01-29T05:48:49.998Z,7.12
2023-01-29T05:50:54.965Z,7.12
2023-01-29T05:53:00.427Z,7.10
2023-01-29T05:55:09.493Z,7.09
2023-01-29T05:57:14.154Z,7.10
2023-01-29T05:59:19.472Z,7.10
2023-01-29T06:01:26.499Z,7.11
2023-01-29T06:03:32.067Z,7.10
2023-01-29T06:05:36.797Z,7.09
2023-01-29T06:07:45.341Z,7.10
2023-01-29T06:09:50.170Z,7.11
2023-01-29T06:11:58.393Z,7.09
2023-01-29T06:14:03.024Z,7.10
2023-01-29T06:16:08.727Z,7.11
2023-01-29T06:18:13.431Z,7.11
2023-01-29T06:20:18.354Z,7.12
2023-01-29T06:22:23.157Z,7.12
2023-01-29T06:24:27.857Z,7.12
2023-01-29T06:26:32.518Z,7.12
2023-01-29T06:28:40.090Z,7.11
2023-01-29T06:30:44.812Z,7.11
2023-01-29T06:32:49.552Z,7.11
2023-01-29T06:34:54.215Z,7.09
2023-01-29T06:36:59.089Z,7.07
2023-01-29T06:39:04.032Z,7.04
2023-01-29T06:41:13.238Z,7.02
2023-01-29T06:43:17.896Z,7.01
2023-01-29T06:45:25.259Z,6.94
2023-01-29T06:47:31.129Z,6.92
2023-01-29T06:49:35.823Z,6.91
2023-01-29T06:51:40.582Z,6.94
2023-01-29T06:53:46.434Z,6.98
2023-01-29T06:55:55.011Z,7.03
2023-01-29T06:57:59.689Z,7.08
2023-01-29T07:00:04.322Z,7.12
2023-01-29T07:02:12.221Z,7.13
2023-01-29T07:04:16.943Z,7.11
2023-01-29T07:06:22.434Z,7.09
2023-01-29T07:08:27.726Z,7.08
2023-01-29T07:10:32.529Z,7.05
2023-01-29T07:12:37.230Z,7.02
2023-01-29T07:14:41.955Z,7.02
2023-01-29T07:16:46.628Z,7.04
2023-01-29T07:18:54.248Z,7.02
2023-01-29T07:20:59.150Z,7.02
2023-01-29T07:23:03.774Z,7.01
2023-01-29T07:25:10.208Z,7.03
2023-01-29T07:27:14.951Z,7.05
2023-01-29T07:29:19.733Z,7.08
2023-01-29T07:31:24.750Z,7.10
2023-01-29T07:33:29.557Z,7.10
2023-01-29T07:35:39.702Z,7.12
2023-01-29T07:37:44.312Z,7.13
2023-01-29T07:39:49.384Z,7.14
2023-01-29T07:41:54.058Z,7.15
2023-01-29T07:44:00.934Z,7.16
2023-01-29T07:46:06.162Z,7.20
2023-01-29T07:48:14.342Z,7.20
2023-01-29T07:50:19.518Z,7.23
2023-01-29T07:52:26.909Z,7.23
2023-01-29T07:54:31.564Z,7.25
2023-01-29T07:56:36.264Z,7.25
2023-01-29T07:58:41.035Z,7.24
2023-01-29T08:00:45.839Z,7.23
2023-01-29T08:02:50.500Z,7.22
2023-01-29T08:04:55.241Z,7.23
2023-01-29T08:07:00.077Z,7.24
2023-01-29T08:09:08.648Z,7.23
2023-01-29T08:11:13.341Z,7.23
2023-01-29T08:13:18.179Z,7.23
2023-01-29T08:15:22.916Z,7.22
2023-01-29T08:17:27.658Z,7.24
2023-01-29T08:19:32.350Z,7.26
2023-01-29T08:21:37.398Z,7.27
2023-01-29T08:23:42.036Z,7.30
2023-01-29T08:25:49.365Z,7.31
2023-01-29T08:27:54.363Z,7.32
2023-01-29T08:29:59.085Z,7.34
2023-01-29T08:32:03.842Z,7.36
2023-01-29T08:34:08.636Z,7.36
2023-01-29T08:36:13.725Z,7.38
2023-01-29T08:38:18.429Z,7.37
2023-01-29T08:40:23.067Z,7.40
2023-01-29T08:42:30.558Z,7.40
2023-01-29T08:44:35.386Z,7.42
2023-01-29T08:46:40.824Z,7.45
2023-01-29T08:48:45.474Z,7.46
2023-01-29T08:50:50.224Z,7.47
2023-01-29T08:52:54.954Z,7.47
2023-01-29T08:54:59.757Z,7.48
2023-01-29T08:57:04.430Z,7.48
2023-01-29T08:59:12.826Z,7.48
2023-01-29T09:01:17.809Z,7.52
2023-01-29T09:03:22.592Z,7.51
2023-01-29T09:05:27.230Z,7.54
2023-01-29T09:07:32.692Z,7.55
2023-01-29T09:09:38.416Z,7.55
2023-01-29T09:11:43.375Z,7.55
2023-01-29T09:13:47.977Z,7.53
2023-01-29T09:15:55.875Z,7.53
2023-01-29T09:18:05.401Z,7.52
2023-01-29T09:20:11.536Z,7.50
2023-01-29T09:22:16.326Z,7.51
2023-01-29T09:24:21.188Z,7.50
2023-01-29T09:26:25.846Z,7.53
2023-01-29T09:28:31.128Z,7.54
2023-01-29T09:30:37.900Z,7.54
2023-01-29T09:32:54.447Z,7.54
2023-01-29T09:34:59.597Z,7.57
2023-01-29T09:37:04.256Z,7.59
2023-01-29T09:39:08.934Z,7.60
2023-01-29T09:41:29.652Z,7.57
2023-01-29T09:43:45.721Z,7.59
2023-01-29T09:45:57.297Z,7.59
2023-01-29T09:48:08.432Z,7.58
2023-01-29T09:50:20.412Z,7.58
2023-01-29T09:52:28.415Z,7.59
2023-01-29T09:54:38.590Z,7.59
2023-01-29T09:56:45.008Z,7.61
2023-01-29T09:58:50.200Z,7.60
2023-01-29T10:01:02.852Z,7.62
2023-01-29T10:03:26.516Z,7.62
2023-01-29T10:05:48.733Z,7.62
2023-01-29T10:08:22.917Z,7.64
2023-01-29T10:10:40.714Z,7.64
2023-01-29T10:13:10.720Z,7.63
2023-01-29T10:15:31.126Z,7.63
2023-01-29T10:18:01.998Z,7.62
2023-01-29T10:20:28.782Z,7.61
2023-01-29T10:23:01.587Z,7.62
2023-01-29T10:25:08.504Z,7.66
2023-01-29T10:27:18.767Z,7.65
2023-01-29T10:29:24.794Z,7.67
2023-01-29T10:31:36.492Z,7.67
2023-01-29T10:33:54.231Z,7.67
2023-01-29T10:36:13.733Z,7.67
2023-01-29T10:38:31.147Z,7.67
2023-01-29T10:40:41.878Z,7.69
2023-01-29T10:42:52.831Z,7.70
2023-01-29T10:45:12.127Z,7.71
2023-01-29T10:47:40.596Z,7.70
2023-01-29T10:50:03.458Z,7.71
2023-01-29T10:52:32.142Z,7.69
2023-01-29T10:54:52.941Z,7.72
2023-01-29T10:57:09.710Z,7.72
2023-01-29T10:59:30.578Z,7.74
2023-01-29T11:01:35.402Z,7.73
2023-01-29T11:03:40.207Z,7.73
2023-01-29T11:05:48.066Z,7.72
2023-01-29T11:08:04.784Z,7.72
2023-01-29T11:10:14.654Z,7.73
2023-01-29T11:12:23.710Z,7.73
2023-01-29T11:14:32.881Z,7.72
2023-01-29T11:16:43.923Z,7.73
2023-01-29T11:18:58.443Z,7.73
2023-01-29T11:21:05.536Z,7.75
2023-01-29T11:23:28.226Z,7.76
2023-01-29T11:25:33.846Z,7.78
2023-01-29T11:27:45.584Z,7.77
2023-01-29T11:29:51.311Z,7.77
2023-01-29T11:31:56.711Z,7.78
2023-01-29T11:34:06.854Z,7.79
2023-01-29T11:36:25.058Z,7.80
2023-01-29T11:38:32.598Z,7.82
2023-01-29T11:40:42.744Z,7.86
2023-01-29T11:42:48.192Z,7.88
2023-01-29T11:44:52.910Z,7.83
2023-01-29T11:46:58.534Z,7.81
2023-01-29T11:49:19.147Z,7.79
2023-01-29T11:51:28.656Z,7.73
2023-01-29T11:53:43.187Z,7.65
2023-01-29T11:55:51.742Z,7.59
2023-01-29T11:58:01.042Z,7.54
2023-01-29T12:00:10.165Z,7.52
2023-01-29T12:02:26.956Z,7.49
2023-01-29T12:04:32.187Z,7.51
2023-01-29T12:06:39.392Z,7.51
2023-01-29T12:08:46.865Z,7.49
2023-01-29T12:10:51.910Z,7.48
2023-01-29T12:13:07.995Z,7.44
2023-01-29T12:15:25.386Z,7.46
2023-01-29T12:17:36.234Z,7.49
2023-01-29T12:19:45.600Z,7.54
2023-01-29T12:21:53.971Z,7.56
2023-01-29T12:24:06.796Z,7.57
2023-01-29T12:26:16.045Z,7.60
2023-01-29T12:28:33.525Z,7.62
2023-01-29T12:30:47.346Z,7.61
2023-01-29T12:33:00.324Z,7.62
2023-01-29T12:35:12.110Z,7.64
2023-01-29T12:37:24.002Z,7.66
2023-01-29T12:39:32.641Z,7.66
2023-01-29T12:41:45.978Z,7.66
2023-01-29T12:43:55.035Z,7.57
2023-01-29T12:46:02.640Z,7.51
2023-01-29T12:48:11.653Z,7.46
2023-01-29T12:50:22.879Z,7.45
2023-01-29T12:52:39.791Z,7.43
2023-01-29T12:54:54.208Z,7.43
2023-01-29T12:57:03.552Z,7.45
2023-01-29T12:59:17.887Z,7.46
2023-01-29T13:01:28.695Z,7.48
2023-01-29T13:03:42.305Z,7.48
2023-01-29T13:05:51.054Z,7.44
2023-01-29T13:08:01.398Z,7.40
2023-01-29T13:10:15.376Z,7.38
2023-01-29T13:12:23.380Z,7.35
2023-01-29T13:14:33.990Z,7.31
2023-01-29T13:16:43.490Z,7.31
2023-01-29T13:18:51.681Z,7.32
2023-01-29T13:20:57.148Z,7.32
2023-01-29T13:23:21.545Z,7.32
2023-01-29T13:25:29.035Z,7.33
2023-01-29T13:27:36.301Z,7.33
2023-01-29T13:29:41.077Z,7.36
2023-01-29T13:31:51.441Z,7.38
2023-01-29T13:33:58.793Z,7.43
2023-01-29T13:36:03.680Z,7.43
2023-01-29T13:38:09.714Z,7.46
2023-01-29T13:40:24.788Z,7.47
2023-01-29T13:42:41.466Z,7.49
2023-01-29T13:44:51.296Z,7.56
2023-01-29T13:47:01.527Z,7.59
2023-01-29T13:49:06.264Z,7.64
2023-01-29T13:51:17.866Z,7.67
2023-01-29T13:53:26.541Z,7.69
2023-01-29T13:55:34.402Z,7.70
2023-01-29T13:57:56.894Z,7.71
2023-01-29T14:00:01.732Z,7.75
2023-01-29T14:02:22.002Z,7.74
2023-01-29T14:04:31.067Z,7.73
2023-01-29T14:06:45.839Z,7.72
2023-01-29T14:08:50.939Z,7.73
2023-01-29T14:11:36.392Z,7.70
2023-01-29T14:13:45.133Z,7.75
2023-01-29T14:16:24.759Z,7.74
2023-01-29T14:18:30.435Z,7.79
2023-01-29T14:20:45.847Z,7.79
2023-01-29T14:22:59.638Z,7.80
2023-01-29T14:25:08.302Z,7.83
2023-01-29T14:27:25.396Z,7.85
2023-01-29T14:29:39.446Z,7.88
2023-01-29T14:31:46.620Z,7.89
2023-01-29T14:33:51.889Z,7.92
2023-01-29T14:35:58.970Z,7.93
2023-01-29T14:38:08.116Z,7.94
2023-01-29T14:40:23.563Z,7.93
2023-01-29T14:42:31.516Z,7.94
2023-01-29T14:45:26.321Z,7.90
2023-01-29T14:47:56.460Z,7.89
2023-01-29T14:50:03.368Z,7.92
2023-01-29T14:52:13.184Z,7.93
2023-01-29T14:54:28.014Z,7.92
2023-01-29T14:56:38.383Z,7.89
2023-01-29T14:58:48.069Z,7.88
2023-01-29T15:00:58.980Z,7.89
2023-01-29T15:03:06.612Z,7.92
2023-01-29T15:05:17.037Z,7.93
2023-01-29T15:07:30.745Z,7.94
2023-01-29T15:09:42.960Z,7.95
2023-01-29T15:11:55.407Z,7.96
2023-01-29T15:14:11.335Z,7.97
2023-01-29T15:16:23.731Z,7.99
2023-01-29T15:18:34.653Z,7.99
2023-01-29T15:20:41.273Z,8.01
2023-01-29T15:22:46.605Z,8.03
2023-01-29T15:25:07.480Z,8.01
2023-01-29T15:27:16.838Z,8.01
2023-01-29T15:29:27.558Z,8.02
2023-01-29T15:31:35.814Z,8.01
2023-01-29T15:33:41.275Z,8.02
2023-01-29T15:35:48.308Z,7.98
2023-01-29T15:38:01.581Z,7.92
2023-01-29T15:40:14.951Z,7.89
2023-01-29T15:42:23.687Z,7.85
2023-01-29T15:44:28.460Z,7.80
2023-01-29T15:46:39.019Z,7.77
2023-01-29T15:48:46.961Z,7.76
2023-01-29T15:50:56.706Z,7.74
2023-01-29T15:53:06.352Z,7.75
2023-01-29T15:55:16.173Z,7.76
2023-01-29T15:57:27.524Z,7.77
2023-01-29T15:59:35.986Z,7.78
2023-01-29T16:01:43.528Z,7.79
2023-01-29T16:03:49.120Z,7.77
2023-01-29T16:05:55.161Z,7.76
2023-01-29T16:08:00.624Z,7.75
2023-01-29T16:10:06.672Z,7.73
2023-01-29T16:12:15.745Z,7.68
2023-01-29T16:14:25.621Z,7.65
2023-01-29T16:16:31.075Z,7.61
2023-01-29T16:18:54.190Z,7.57
2023-01-29T16:21:06.665Z,7.54
2023-01-29T16:23:21.082Z,7.52
2023-01-29T16:25:26.948Z,7.53
2023-01-29T16:27:33.863Z,7.53
2023-01-29T16:29:39.063Z,7.52
2023-01-29T16:31:46.669Z,7.49
2023-01-29T16:33:54.113Z,7.51
2023-01-29T16:35:59.334Z,7.53
2023-01-29T16:38:07.888Z,7.53
2023-01-29T16:40:19.385Z,7.52
2023-01-29T16:42:32.341Z,7.51
2023-01-29T16:44:38.987Z,7.55
2023-01-29T16:46:49.235Z,7.57
2023-01-29T16:48:57.095Z,7.56
2023-01-29T16:51:08.168Z,7.52
2023-01-29T16:53:16.024Z,7.50
2023-01-29T16:55:25.780Z,7.45
2023-01-29T16:57:35.550Z,7.42
2023-01-29T16:59:42.975Z,7.40
2023-01-29T17:01:48.363Z,7.39
2023-01-29T17:04:03.496Z,7.37
2023-01-29T17:06:12.843Z,7.28
2023-01-29T17:08:24.091Z,7.24
2023-01-29T17:10:31.021Z,7.22
2023-01-29T17:12:38.875Z,7.24
2023-01-29T17:14:56.282Z,7.27
2023-01-29T17:17:07.020Z,7.30
2023-01-29T17:19:21.739Z,7.33
2023-01-29T17:21:26.770Z,7.36
2023-01-29T17:23:31.472Z,7.36
2023-01-29T17:25:36.121Z,7.35
2023-01-29T17:27:44.337Z,7.33
2023-01-29T17:29:49.100Z,7.33
2023-01-29T17:31:55.025Z,7.31
2023-01-29T17:34:00.536Z,7.24
2023-01-29T17:36:08.412Z,7.22
2023-01-29T17:38:24.339Z,7.25
2023-01-29T17:40:38.605Z,7.24
2023-01-29T17:42:43.388Z,7.25
2023-01-29T17:44:48.070Z,7.24
2023-01-29T17:46:52.926Z,7.23
2023-01-29T17:48:57.689Z,7.13
2023-01-29T17:51:05.742Z,7.09
2023-01-29T17:53:13.108Z,7.02
2023-01-29T17:55:18.298Z,6.99
2023-01-29T17:57:23.184Z,6.95
2023-01-29T17:59:31.303Z,6.90
2023-01-29T18:01:36.040Z,6.88
2023-01-29T18:03:41.323Z,6.81
2023-01-29T18:05:47.921Z,6.81
2023-01-29T18:07:54.806Z,6.82
2023-01-29T18:10:02.135Z,6.80
2023-01-29T18:12:06.915Z,6.75
2023-01-29T18:14:14.390Z,6.72
2023-01-29T18:16:22.033Z,6.68
2023-01-29T18:18:28.145Z,6.67
2023-01-29T18:20:36.821Z,6.64
2023-01-29T18:22:41.524Z,6.62
2023-01-29T18:24:46.241Z,6.63
2023-01-29T18:26:53.998Z,6.62
2023-01-29T18:28:59.208Z,6.60
2023-01-29T18:31:04.528Z,6.55
2023-01-29T18:33:09.327Z,6.50
2023-01-29T18:35:17.610Z,6.47
2023-01-29T18:37:22.854Z,6.47
2023-01-29T18:39:27.629Z,6.46
2023-01-29T18:41:32.323Z,6.41
2023-01-29T18:43:40.102Z,6.36
2023-01-29T18:45:45.336Z,6.31
2023-01-29T18:47:50.098Z,6.21
2023-01-29T18:49:55.286Z,6.12
2023-01-29T18:52:00.065Z,6.09
2023-01-29T18:54:04.773Z,6.12
2023-01-29T18:56:10.509Z,6.15
2023-01-29T18:58:25.991Z,6.13
2023-01-29T19:00:36.599Z,6.08
2023-01-29T19:02:43.206Z,6.09
2023-01-29T19:04:48.376Z,6.09
2023-01-29T19:06:53.036Z,6.10
2023-01-29T19:08:57.817Z,6.08
2023-01-29T19:11:05.614Z,6.03
2023-01-29T19:13:11.162Z,6.00
2023-01-29T19:15:16.436Z,6.02
2023-01-29T19:17:24.542Z,6.02
2023-01-29T19:19:29.870Z,6.05
2023-01-29T19:21:36.857Z,6.08
2023-01-29T19:23:42.253Z,6.11
2023-01-29T19:25:47.141Z,6.17
2023-01-29T19:27:52.173Z,6.21
2023-01-29T19:29:56.908Z,6.24
2023-01-29T19:32:01.583Z,6.23
2023-01-29T19:34:09.321Z,6.19
2023-01-29T19:36:14.178Z,6.18
2023-01-29T19:38:21.278Z,6.20
2023-01-29T19:40:26.493Z,6.18
2023-01-29T19:42:31.465Z,6.13
2023-01-29T19:44:36.165Z,6.15
2023-01-29T19:46:41.373Z,6.15
2023-01-29T19:48:46.152Z,6.13
2023-01-29T19:50:58.103Z,6.08
2023-01-29T19:53:02.841Z,6.05
2023-01-29T19:55:09.553Z,5.99
2023-01-29T19:57:14.271Z,5.92
2023-01-29T19:59:31.520Z,5.90
2023-01-29T20:01:36.358Z,5.86
2023-01-29T20:03:42.005Z,5.89
2023-01-29T20:05:46.739Z,5.87
2023-01-29T20:07:54.322Z,5.90
2023-01-29T20:09:58.989Z,5.89
2023-01-29T20:12:03.743Z,5.89
2023-01-29T20:14:08.454Z,5.93
2023-01-29T20:16:13.487Z,5.94
2023-01-29T20:18:18.769Z,5.93
2023-01-29T20:20:23.804Z,5.92
2023-01-29T20:22:32.540Z,5.93
2023-01-29T20:24:42.442Z,5.95
2023-01-29T20:26:47.479Z,5.99
2023-01-29T20:28:52.440Z,6.01
2023-01-29T20:30:59.203Z,6.00
2023-01-29T20:33:05.191Z,5.94
2023-01-29T20:35:11.693Z,5.85
2023-01-29T20:37:16.501Z,5.80
2023-01-29T20:39:21.289Z,5.72
2023-01-29T20:41:28.908Z,5.67
2023-01-29T20:43:33.635Z,5.62
2023-01-29T20:45:38.381Z,5.54
2023-01-29T20:47:43.076Z,5.48
2023-01-29T20:49:47.914Z,5.46
2023-01-29T20:51:52.657Z,5.45
2023-01-29T20:53:57.377Z,5.45
2023-01-29T20:56:04.281Z,5.48
2023-01-29T20:58:12.001Z,5.51
2023-01-29T21:00:18.214Z,5.63
2023-01-29T21:02:23.556Z,5.72
2023-01-29T21:04:28.429Z,5.85
2023-01-29T21:06:33.491Z,5.95
2023-01-29T21:08:38.447Z,6.06
2023-01-29T21:10:45.156Z,6.13
2023-01-29T21:12:49.778Z,6.17
2023-01-29T21:14:57.071Z,6.16
2023-01-29T21:17:01.982Z,6.10
2023-01-29T21:19:06.709Z,6.03
2023-01-29T21:21:11.386Z,6.03
2023-01-29T21:23:16.069Z,6.01
2023-01-29T21:25:21.493Z,5.97
2023-01-29T21:27:27.672Z,5.96
2023-01-29T21:29:32.511Z,5.94
2023-01-29T21:31:40.265Z,5.92
2023-01-29T21:33:45.351Z,5.94
2023-01-29T21:35:59.418Z,5.98
2023-01-29T21:38:04.090Z,5.99
2023-01-29T21:40:10.560Z,5.99
2023-01-29T21:42:27.733Z,6.02
2023-01-29T21:44:33.609Z,6.01
2023-01-29T21:46:41.175Z,6.04
2023-01-29T21:48:45.965Z,6.02
2023-01-29T21:50:51.199Z,5.96
2023-01-29T21:52:55.902Z,5.95
2023-01-29T21:55:00.676Z,5.97
2023-01-29T21:57:07.572Z,5.96
2023-01-29T21:59:12.387Z,5.99
2023-01-29T22:01:37.617Z,6.00
2023-01-29T22:03:47.095Z,6.01
2023-01-29T22:05:53.444Z,6.03
2023-01-29T22:07:58.713Z,6.03
2023-01-29T22:10:03.662Z,6.05
2023-01-29T22:12:11.039Z,6.06
2023-01-29T22:14:18.303Z,6.05
2023-01-29T22:16:23.112Z,6.05
2023-01-29T22:18:27.860Z,6.03
2023-01-29T22:20:36.758Z,6.03
2023-01-29T22:22:41.616Z,5.98
2023-01-29T22:24:46.751Z,5.92
2023-01-29T22:26:51.452Z,5.87
2023-01-29T22:28:56.232Z,5.81
2023-01-29T22:31:04.280Z,5.74
2023-01-29T22:33:10.537Z,5.65
2023-01-29T22:35:15.195Z,5.56
2023-01-29T22:37:22.463Z,5.47
2023-01-29T22:39:27.300Z,5.42
2023-01-29T22:41:33.748Z,5.34
2023-01-29T22:43:38.623Z,5.31
2023-01-29T22:45:43.321Z,5.31
2023-01-29T22:47:48.172Z,5.28
2023-01-29T22:49:52.858Z,5.24
2023-01-29T22:52:09.840Z,5.22
2023-01-29T22:54:17.907Z,5.18
2023-01-29T22:56:25.408Z,5.23
2023-01-29T22:58:30.368Z,5.23
2023-01-29T23:00:35.088Z,5.23
2023-01-29T23:02:39.891Z,5.21
2023-01-29T23:04:44.769Z,5.15
2023-01-29T23:06:49.449Z,5.12
2023-01-29T23:08:54.475Z,5.13
2023-01-29T23:11:14.367Z,5.12
2023-01-29T23:13:19.593Z,5.13
2023-01-29T23:15:24.275Z,5.11
2023-01-29T23:17:29.033Z,5.07
2023-01-29T23:19:33.664Z,5.04
2023-01-29T23:21:38.440Z,5.01
2023-01-29T23:23:45.040Z,5.03
2023-01-29T23:26:02.143Z,5.07
2023-01-29T23:28:09.442Z,5.12
2023-01-29T23:30:15.060Z,5.10
2023-01-29T23:32:21.766Z,5.10
2023-01-29T23:34:26.473Z,5.05
2023-01-29T23:36:31.242Z,4.99
2023-01-29T23:38:36.487Z,4.92
2023-01-29T23:40:41.131Z,4.86
2023-01-29T23:42:45.799Z,4.77
2023-01-29T23:44:53.020Z,4.64
2023-01-29T23:46:58.346Z,4.60
2023-01-29T23:49:03.177Z,4.57
2023-01-29T23:51:08.152Z,4.58
2023-01-29T23:53:13.029Z,4.63
2023-01-29T23:55:18.181Z,4.62
2023-01-29T23:57:22.810Z,4.65
2023-01-29T23:59:29.873Z,4.66
